Flight Track Log - Related Links

Times and Time Zones

All times are in EDT time to prevent confusion due to time zone crossing. See the AWI3704 flight status page for this flight to view local times or setup timezone preferences in your user account.

Time Position Orientation Groundspeed Altitude Reporting Facility
EDT Latitude Longitude Course Direction KTS MPH feet Rate Location/Type
Sun 01:10:47 PM 42.7297 -73.8081 220° Southwest 139 160 1,200  Level Boston Center
Sun 01:12:53 PM 42.6994 -73.9119 248° West 223 257 5,200 2,419 Climbing Boston Center
Sun 01:13:00 PM 42.7334 -74.1641 270° West  Level FlightAware Approximate
Sun 01:13:53 PM 42.7122 -74.0281 279° West 254 292 8,700  Level Boston Center
Sun 01:14:00 PM 42.7333 -74.2855 270° West  Level FlightAware Approximate
Sun 01:15:00 PM 42.6790 -74.3758 220° Southwest  Level FlightAware Approximate
Sun 01:15:05 PM 42.7272 -74.1444 280° West 268 308 10,800  Level Boston Center
Sun 01:16:00 PM 42.6103 -74.4530 220° Southwest  Level FlightAware Approximate
Sun 01:16:05 PM 42.7400 -74.2747 278° West 312 359 13,000  Level Boston Center
Sun 01:17:05 PM 42.6797 -74.3861 234° Southwest 317 365 14,700 1,500 Climbing Boston Center
Sun 01:18:05 PM 42.6117 -74.4628 220° Southwest 346 398 16,000 650 Climbing Boston Center
Sun 01:19:05 PM 42.5264 -74.5614 220° Southwest 371 427 16,000  Level Boston Center
Sun 01:20:05 PM 42.4583 -74.6381 220° Southwest 371 427 16,000  Level Boston Center
Sun 01:21:05 PM 42.3708 -74.7361 220° Southwest 371 427 16,000  Level Boston Center
Sun 01:23:27 PM 42.1981 -74.9333 220° Southwest 350 403 16,000  Level New York Center
Sun 01:24:28 PM 42.1056 -75.0197 215° Southwest 369 425 16,000  Level New York Center
Sun 01:25:29 PM 42.0197 -75.0922 212° Southwest 374 430 16,000  Level New York Center
Sun 01:26:29 PM 41.9294 -75.1644 211° Southwest 379 436 16,000  Level New York Center
Sun 01:27:30 PM 41.8522 -75.2261 211° Southwest 379 436 16,000  Level New York Center
Sun 01:28:28 PM 41.7642 -75.2981 211° Southwest 379 436 16,000  Level New York Center
Sun 01:29:30 PM 41.6675 -75.3750 211° Southwest 379 436 16,000 -250 Level New York Center
Sun 01:30:28 PM 41.5794 -75.4464 211° Southwest 379 436 15,500 -1,563 Descending New York Center
Sun 01:31:29 PM 41.4933 -75.5153 211° Southwest 379 436 12,900 -1,736 Descending New York Center
Sun 01:32:29 PM 41.4181 -75.5764 211° Southwest 373 429 12,000 -450 Descending New York Center
Sun 01:33:29 PM 41.3256 -75.6469 210° Southwest 361 415 12,000  Level New York Center
Sun 01:34:27 PM 41.2364 -75.6875 199° South 343 395 12,000  Level New York Center
Sun 01:35:27 PM 41.1417 -75.6614 168° South 339 390 12,000  Level New York Center
Sun 01:36:28 PM 41.0472 -75.6297 166° South 353 406 12,000  Level New York Center
Sun 01:37:29 PM 40.9506 -75.5981 166° South 359 413 12,000  Level New York Center
Sun 01:38:29 PM 40.8539 -75.5667 166° South 354 407 12,000 -101 Level New York Center
Sun 01:39:28 PM 40.7611 -75.5381 167° South 354 407 11,800 -655 Descending New York Center
Sun 01:40:28 PM 40.6667 -75.5042 165° South 354 407 10,700 -893 Descending New York Center
Sun 01:41:29 PM 40.5844 -75.4767 166° South 354 407 10,000 -347 Descending New York Center
Sun 01:42:29 PM 40.4961 -75.4489 167° South 347 399 10,000  Level New York Center
Sun 01:43:29 PM 40.4142 -75.4106 160° South 311 358 10,000 -500 Level New York Center
Sun 01:44:29 PM 40.3447 -75.3706 156° South 298 343 9,000 -1,017 Descending New York Center
Sun 01:45:27 PM 40.2628 -75.3350 162° South 293 337 8,000 -857 Descending New York Center
Sun 01:46:28 PM 40.1867 -75.3653 197° South 274 315 7,300 -885 Descending New York Center
Sun 01:47:29 PM 40.1164 -75.4014 201° Southwest 284 327 6,200 -645 Descending New York Center
Sun 01:48:29 PM 40.0558 -75.4544 214° Southwest 279 321 6,000 -99 Descending New York Center
Sun 01:49:30 PM 39.9953 -75.5100 215° Southwest 274 315 6,000 -458 Level New York Center
Sun 01:50:27 PM 39.9364 -75.5222 189° South 234 269 5,100 -1,525 Descending New York Center
Sun 01:51:28 PM 39.8756 -75.4856 155° Southeast 222 255 3,000 -2,066 Descending New York Center

Login

Don't have an account? Register now (free) for customized features, flight alerts, and more!